Time;durP1;ratioP1;P1;durP2;ratioP2;P2;SDS_P1;SDS_P2;PMS_P1;PMS_P2;Temp;Humidity;BMP_temperature;BMP_pressure;BME280_temperature;BME280_humidity;BME280_pressure;Samples;Min_cycle;Max_cycle;Signal;HPM_P1;HPM_P2
2022/04/27 00:00:34;;;;;;;5.28;3.05;;;11.70;40.60;;;;;;5053370;28;20203;-33
2022/04/27 00:03:03;;;;;;;7.47;4.13;;;11.70;40.40;;;;;;5053413;28;20256;-33
2022/04/27 00:05:29;;;;;;;5.50;3.17;;;11.60;40.40;;;;;;5053371;28;20562;-33
2022/04/27 00:07:55;;;;;;;5.97;3.42;;;11.60;40.80;;;;;;5053280;28;20192;-33
2022/04/27 00:10:21;;;;;;;5.23;3.50;;;11.60;40.50;;;;;;5053141;28;20180;-33
2022/04/27 00:12:48;;;;;;;5.30;3.10;;;11.60;40.30;;;;;;5053144;28;20438;-33
2022/04/27 00:15:15;;;;;;;9.50;2.55;;;11.60;40.30;;;;;;5052962;28;20995;-33
2022/04/27 00:17:41;;;;;;;4.05;2.58;;;11.50;40.50;;;;;;5053015;28;20189;-33
2022/04/27 00:20:08;;;;;;;4.45;2.65;;;11.50;41.20;;;;;;5053242;28;20588;-33
2022/04/27 00:22:35;;;;;;;5.32;3.22;;;11.40;40.90;;;;;;5052894;28;20173;-33
2022/04/27 00:25:03;;;;;;;3.33;2.88;;;11.40;41.00;;;;;;5052941;28;20652;-33
2022/04/27 00:27:31;;;;;;;5.35;3.22;;;11.30;41.00;;;;;;5051849;28;20690;-33
2022/04/27 00:29:58;;;;;;;6.07;3.50;;;11.30;40.80;;;;;;5034356;28;20770;-33
2022/04/27 00:32:24;;;;;;;4.13;2.90;;;11.30;41.00;;;;;;5052568;28;20176;-33
2022/04/27 00:34:50;;;;;;;5.60;2.95;;;11.30;41.00;;;;;;5052777;28;20700;-33
2022/04/27 00:37:18;;;;;;;9.10;4.00;;;11.20;40.90;;;;;;5052469;28;20208;-33
2022/04/27 00:39:44;;;;;;;5.60;3.30;;;11.20;40.70;;;;;;5052604;28;20173;-33
2022/04/27 00:42:27;;;;;;;5.72;3.50;;;11.20;40.40;;;;;;5052513;28;20177;-33
2022/04/27 00:44:53;;;;;;;4.38;2.88;;;11.20;40.20;;;;;;5034734;28;20172;-33
2022/04/27 00:47:19;;;;;;;4.00;2.37;;;11.20;40.20;;;;;;5052522;28;20201;-33
2022/04/27 00:49:52;;;;;;;4.50;2.73;;;11.20;40.20;;;;;;5053872;28;20179;-33
2022/04/27 00:52:19;;;;;;;7.35;3.40;;;11.10;40.20;;;;;;5053400;28;20499;-33
2022/04/27 00:54:48;;;;;;;3.45;2.40;;;11.10;40.20;;;;;;5053313;28;20224;-33
2022/04/27 00:57:14;;;;;;;5.70;2.97;;;11.00;40.20;;;;;;5051669;28;20662;-33
2022/04/27 00:59:40;;;;;;;5.55;2.50;;;11.00;40.70;;;;;;5052364;28;20165;-33
2022/04/27 01:02:07;;;;;;;3.97;2.75;;;10.90;40.70;;;;;;5052049;28;20516;-33
2022/04/27 01:04:35;;;;;;;5.45;2.90;;;10.90;40.70;;;;;;5052232;28;20576;-33
2022/04/27 01:07:01;;;;;;;2.97;2.60;;;10.90;40.60;;;;;;5052210;28;20225;-33
2022/04/27 01:09:29;;;;;;;4.05;2.47;;;10.90;40.40;;;;;;5052179;28;20177;-33
2022/04/27 01:12:01;;;;;;;6.43;2.70;;;10.90;40.40;;;;;;5051937;28;20646;-33
2022/04/27 01:14:27;;;;;;;6.28;3.42;;;10.90;40.50;;;;;;5034129;28;20215;-33
2022/04/27 01:16:54;;;;;;;4.47;2.80;;;10.80;40.50;;;;;;5052054;28;20527;-33
2022/04/27 01:19:24;;;;;;;5.30;3.08;;;10.80;40.60;;;;;;5052051;28;20180;-33
2022/04/27 01:21:50;;;;;;;6.20;3.80;;;10.80;40.80;;;;;;5051740;28;20167;-33
2022/04/27 01:24:20;;;;;;;3.50;2.53;;;10.70;40.70;;;;;;5052022;28;20177;-33
2022/04/27 01:26:48;;;;;;;4.75;3.35;;;10.70;41.10;;;;;;5051860;28;20197;-33
2022/04/27 01:29:18;;;;;;;4.13;2.90;;;10.60;40.70;;;;;;5051843;28;20173;-33
2022/04/27 01:31:45;;;;;;;6.05;3.20;;;10.60;40.50;;;;;;5051667;28;20172;-33
2022/04/27 01:34:12;;;;;;;3.97;2.85;;;11.00;40.80;;;;;;5051859;28;20211;-33
2022/04/27 01:36:38;;;;;;;7.53;3.65;;;10.60;40.50;;;;;;5051649;28;20239;-33
2022/04/27 01:39:05;;;;;;;6.68;3.50;;;10.60;40.50;;;;;;5051972;28;20173;-33
2022/04/27 01:41:31;;;;;;;5.18;2.83;;;10.50;40.70;;;;;;5051653;28;20169;-33
2022/04/27 01:43:59;;;;;;;7.70;3.17;;;10.50;40.70;;;;;;5051718;28;20516;-33
2022/04/27 01:46:26;;;;;;;5.15;3.28;;;10.50;40.70;;;;;;5051668;28;20193;-33
2022/04/27 01:48:52;;;;;;;5.15;3.03;;;10.50;40.70;;;;;;5051756;28;20169;-33
2022/04/27 01:51:18;;;;;;;8.38;2.65;;;10.50;40.60;;;;;;5051581;28;20634;-33
2022/04/27 01:56:31;;;;;;;5.03;2.72;;;10.40;40.80;;;;;;5051550;28;20991;-33
2022/04/27 01:58:57;;;;;;;7.93;3.47;;;10.30;40.50;;;;;;5051488;28;20169;-33
2022/04/27 02:01:25;;;;;;;3.83;3.00;;;10.30;40.50;;;;;;5051382;28;20173;-33
2022/04/27 02:03:51;;;;;;;4.68;3.35;;;10.30;40.70;;;;;;5051623;28;20478;-33
2022/04/27 02:06:19;;;;;;;5.82;3.53;;;10.20;40.60;;;;;;5051490;28;20713;-33
2022/04/27 02:08:45;;;;;;;3.33;2.35;;;10.20;40.40;;;;;;5054614;28;20661;-33
2022/04/27 02:11:11;;;;;;;3.85;2.58;;;10.20;40.30;;;;;;5037505;28;20638;-33
2022/04/27 02:13:37;;;;;;;5.00;2.80;;;10.20;40.20;;;;;;5055286;28;20207;-33
2022/04/27 02:16:03;;;;;;;5.80;3.47;;;10.10;40.30;;;;;;5055327;28;20179;-33
2022/04/27 02:18:29;;;;;;;7.82;3.40;;;10.10;40.30;;;;;;5055469;28;20449;-33
2022/04/27 02:20:56;;;;;;;7.95;3.92;;;10.10;40.50;;;;;;5055074;28;20199;-33
2022/04/27 02:23:22;;;;;;;6.63;3.40;;;10.00;40.40;;;;;;5055376;28;20581;-33
2022/04/27 02:25:48;;;;;;;3.50;2.63;;;10.00;40.40;;;;;;5055328;28;20206;-33
2022/04/27 02:28:14;;;;;;;4.87;2.70;;;10.00;41.30;;;;;;5055385;28;20670;-33
2022/04/27 02:30:40;;;;;;;5.32;3.47;;;9.90;41.20;;;;;;5054801;28;20189;-33
2022/04/27 02:33:06;;;;;;;3.38;2.53;;;9.90;41.40;;;;;;5054873;28;20171;-33
2022/04/27 02:35:31;;;;;;;5.43;3.70;;;9.90;41.10;;;;;;5054903;28;20740;-33
2022/04/27 02:37:57;;;;;;;5.30;2.97;;;9.90;41.30;;;;;;5054908;28;21014;-33
2022/04/27 02:40:23;;;;;;;4.17;3.23;;;9.80;40.90;;;;;;5054875;28;20173;-33
2022/04/27 02:42:49;;;;;;;5.87;2.73;;;9.80;40.80;;;;;;5054817;28;20184;-33
2022/04/27 02:45:15;;;;;;;5.00;2.85;;;9.80;40.70;;;;;;5054872;28;20642;-33
2022/04/27 02:47:40;;;;;;;2.67;2.00;;;9.80;40.60;;;;;;5054915;28;20208;-33
2022/04/27 02:52:51;;;;;;;6.30;2.60;;;9.70;41.00;;;;;;5054808;28;20665;-33
2022/04/27 02:55:16;;;;;;;5.97;3.13;;;9.70;41.30;;;;;;5054639;28;20208;-33
2022/04/27 02:57:42;;;;;;;3.87;2.50;;;9.60;41.00;;;;;;5054685;28;20555;-33
2022/04/27 03:00:08;;;;;;;4.27;3.00;;;9.60;41.10;;;;;;5054742;28;20593;-33
2022/04/27 03:02:34;;;;;;;6.43;3.05;;;9.60;40.90;;;;;;5054449;28;20404;-33
2022/04/27 03:05:00;;;;;;;5.18;2.88;;;9.60;40.80;;;;;;5054557;28;20176;-33
2022/04/27 03:07:28;;;;;;;6.43;3.30;;;9.60;40.90;;;;;;5054444;28;20678;-33
2022/04/27 03:09:55;;;;;;;3.60;2.70;;;9.60;41.60;;;;;;5054512;28;20227;-33
2022/04/27 03:12:21;;;;;;;5.82;3.05;;;9.50;41.70;;;;;;5054096;28;20177;-33
2022/04/27 03:14:47;;;;;;;5.20;3.20;;;9.50;41.70;;;;;;5054385;28;20193;-33
2022/04/27 03:17:12;;;;;;;4.17;2.93;;;9.50;42.30;;;;;;5036204;28;20438;-33
2022/04/27 03:19:39;;;;;;;5.07;2.93;;;9.50;42.30;;;;;;5053220;28;20169;-33
2022/04/27 03:22:04;;;;;;;7.13;2.70;;;9.50;42.40;;;;;;5036335;28;20169;-33
2022/04/27 03:24:30;;;;;;;4.93;3.33;;;9.60;41.90;;;;;;5054160;28;20200;-33
2022/04/27 03:26:56;;;;;;;6.57;3.03;;;9.60;42.40;;;;;;5053959;28;20574;-32
2022/04/27 03:29:21;;;;;;;6.70;2.57;;;9.60;42.50;;;;;;5054092;28;20557;-33
2022/04/27 03:31:47;;;;;;;5.20;4.43;;;9.60;42.80;;;;;;5054136;28;20177;-33
2022/04/27 03:34:13;;;;;;;5.50;2.60;;;9.60;42.50;;;;;;5053508;28;20259;-33
2022/04/27 03:36:39;;;;;;;3.30;2.40;;;9.70;42.60;;;;;;5053462;28;20214;-33
2022/04/27 03:39:04;;;;;;;4.83;2.83;;;9.70;42.60;;;;;;5054098;28;20535;-33
2022/04/27 03:41:30;;;;;;;4.87;2.63;;;9.70;42.30;;;;;;5053773;28;20415;-33
2022/04/27 03:43:56;;;;;;;5.43;3.00;;;9.70;42.40;;;;;;5053746;28;20543;-33
2022/04/27 03:46:21;;;;;;;7.07;3.30;;;9.70;42.30;;;;;;5053637;28;20196;-33
2022/04/27 03:48:47;;;;;;;4.13;2.17;;;9.70;42.20;;;;;;5053733;28;20898;-33
2022/04/27 03:51:13;;;;;;;5.20;2.90;;;9.80;42.00;;;;;;5053457;28;20633;-33
2022/04/27 03:53:39;;;;;;;3.83;2.63;;;9.80;42.10;;;;;;5053547;28;20808;-33
2022/04/27 03:56:06;;;;;;;3.13;2.83;;;9.80;41.90;;;;;;5053638;28;20412;-33
2022/04/27 03:58:32;;;;;;;4.40;3.38;;;9.70;41.90;;;;;;5053651;28;20207;-33
2022/04/27 04:00:58;;;;;;;4.45;2.85;;;9.80;42.10;;;;;;5053273;28;20174;-33
2022/04/27 04:03:24;;;;;;;4.35;3.35;;;9.80;42.30;;;;;;5053478;28;20173;-33
2022/04/27 04:05:50;;;;;;;4.00;2.60;;;9.80;42.40;;;;;;5053208;28;20564;-33
2022/04/27 04:08:16;;;;;;;8.73;3.20;;;9.80;42.60;;;;;;5053359;28;20168;-33
2022/04/27 04:10:41;;;;;;;6.13;3.23;;;9.90;43.30;;;;;;5053012;28;20530;-33
2022/04/27 04:13:07;;;;;;;3.63;2.30;;;9.90;43.10;;;;;;5053271;28;20166;-33
2022/04/27 04:15:37;;;;;;;7.33;3.53;;;9.90;43.00;;;;;;5053074;28;20277;-33
2022/04/27 04:18:03;;;;;;;4.15;3.15;;;9.90;42.80;;;;;;5054888;28;20200;-32
2022/04/27 04:20:29;;;;;;;5.70;3.53;;;10.00;43.00;;;;;;5054109;28;20252;-33
2022/04/27 04:22:55;;;;;;;5.63;3.63;;;10.00;43.30;;;;;;5054378;28;20294;-33
2022/04/27 04:30:49;;;;;;;21.55;4.40;;;10.10;43.70;;;;;;5052436;28;20265;-33
2022/04/27 04:33:15;;;;;;;7.90;3.50;;;10.10;43.30;;;;;;5052784;28;20598;-33
2022/04/27 04:35:40;;;;;;;4.57;3.00;;;10.10;44.00;;;;;;5052867;28;20597;-33
2022/04/27 04:38:06;;;;;;;5.80;4.27;;;10.20;43.90;;;;;;5053214;28;20206;-32
2022/04/27 04:40:32;;;;;;;14.93;5.20;;;10.20;43.50;;;;;;5052571;28;20244;-32
2022/04/27 04:42:59;;;;;;;6.40;3.22;;;10.30;43.60;;;;;;5052967;28;20657;-32
2022/04/27 04:45:24;;;;;;;4.78;3.15;;;10.30;43.60;;;;;;5052614;28;20177;-32
2022/04/27 04:47:50;;;;;;;7.37;4.30;;;10.40;43.80;;;;;;5052466;28;20204;-32
2022/04/27 04:50:16;;;;;;;4.00;2.90;;;10.40;43.80;;;;;;5052491;28;20507;-32
2022/04/27 04:52:42;;;;;;;5.57;3.93;;;10.50;43.90;;;;;;5052383;28;20207;-32
2022/04/27 04:55:08;;;;;;;5.43;3.17;;;10.50;44.20;;;;;;5052581;28;20471;-32
2022/04/27 04:57:34;;;;;;;10.90;4.32;;;10.60;44.00;;;;;;5052577;28;20185;-32
2022/04/27 05:00:00;;;;;;;5.20;3.28;;;10.70;44.10;;;;;;5052262;28;20657;-32
2022/04/27 05:02:29;;;;;;;7.57;3.58;;;10.70;43.90;;;;;;5052082;28;20256;-32
2022/04/27 05:04:54;;;;;;;5.55;3.47;;;10.80;44.10;;;;;;5052287;28;20176;-32
2022/04/27 05:07:20;;;;;;;3.63;2.43;;;10.90;44.10;;;;;;5052143;28;20189;-32
2022/04/27 05:09:46;;;;;;;4.43;2.10;;;10.90;44.00;;;;;;5052169;28;20169;-32
2022/04/27 05:12:12;;;;;;;4.50;3.40;;;11.00;43.90;;;;;;5051867;28;20183;-32
2022/04/27 05:14:38;;;;;;;7.23;3.90;;;11.10;44.30;;;;;;5051985;28;20493;-32
2022/04/27 05:17:03;;;;;;;5.60;3.43;;;11.20;44.20;;;;;;5051959;28;20193;-32
2022/04/27 05:19:29;;;;;;;5.72;3.75;;;11.30;44.10;;;;;;5052092;28;20689;-32
2022/04/27 05:21:55;;;;;;;5.57;3.73;;;11.30;44.00;;;;;;5051883;28;20169;-32
2022/04/27 05:24:21;;;;;;;9.35;3.17;;;11.40;43.90;;;;;;5051956;28;20246;-32
2022/04/27 05:26:47;;;;;;;4.80;3.23;;;11.50;43.90;;;;;;5051967;28;20280;-32
2022/04/27 05:31:59;;;;;;;4.78;3.10;;;11.60;43.70;;;;;;5051756;28;20237;-32
2022/04/27 05:34:29;;;;;;;4.75;3.22;;;11.70;43.90;;;;;;5051985;28;20220;-32
2022/04/27 05:36:56;;;;;;;4.15;2.53;;;11.80;43.80;;;;;;5051707;28;20211;-32
2022/04/27 05:39:22;;;;;;;5.80;3.63;;;11.80;43.80;;;;;;5051971;28;20590;-32
2022/04/27 05:41:52;;;;;;;6.63;3.45;;;11.90;44.00;;;;;;5034634;28;20172;-32
2022/04/27 05:44:21;;;;;;;7.28;3.95;;;11.90;43.80;;;;;;5058491;28;20161;-32
2022/04/27 05:46:47;;;;;;;6.65;4.72;;;12.00;44.50;;;;;;5059067;28;20269;-32
2022/04/27 05:49:13;;;;;;;8.65;4.10;;;12.10;43.70;;;;;;5058761;28;20607;-32
2022/04/27 05:51:39;;;;;;;3.60;2.87;;;12.20;44.00;;;;;;5058190;28;20200;-32
2022/04/27 05:54:04;;;;;;;5.67;4.00;;;12.20;43.80;;;;;;5058166;28;20554;-32
2022/04/27 05:56:30;;;;;;;6.23;4.07;;;12.30;43.70;;;;;;5058177;28;20434;-33
2022/04/27 05:58:56;;;;;;;5.13;4.20;;;12.40;43.60;;;;;;5058269;28;20582;-32
2022/04/27 06:01:22;;;;;;;7.40;3.67;;;12.50;43.50;;;;;;5058109;28;20166;-33
2022/04/27 06:03:47;;;;;;;6.43;4.00;;;12.60;43.50;;;;;;5058294;28;20196;-33
2022/04/27 06:06:13;;;;;;;7.87;4.90;;;12.60;43.30;;;;;;5058427;28;20698;-33
2022/04/27 06:08:39;;;;;;;5.07;3.70;;;12.70;43.20;;;;;;5058328;28;20285;-33
2022/04/27 06:11:04;;;;;;;8.13;3.90;;;12.70;43.20;;;;;;5057831;28;20184;-33
2022/04/27 06:13:31;;;;;;;7.23;4.43;;;12.80;43.20;;;;;;5058089;28;20172;-33
2022/04/27 06:15:57;;;;;;;5.25;3.55;;;12.90;43.20;;;;;;5058113;28;20702;-33
2022/04/27 06:18:22;;;;;;;8.88;4.68;;;12.90;43.20;;;;;;5058323;28;20169;-33
2022/04/27 06:20:48;;;;;;;6.67;4.80;;;13.00;43.00;;;;;;5057858;28;20165;-33
2022/04/27 06:23:14;;;;;;;12.83;5.07;;;13.10;43.00;;;;;;5058130;28;20165;-33
2022/04/27 06:25:41;;;;;;;7.43;4.20;;;13.10;43.00;;;;;;5058066;28;20185;-33
2022/04/27 06:28:08;;;;;;;4.88;3.35;;;13.20;42.80;;;;;;5058110;28;20201;-33
2022/04/27 06:30:35;;;;;;;9.07;5.97;;;13.30;42.90;;;;;;5057733;28;20677;-33
2022/04/27 06:33:03;;;;;;;6.05;3.72;;;13.30;42.60;;;;;;5057975;28;20256;-33
2022/04/27 06:35:29;;;;;;;5.38;4.80;;;13.40;42.60;;;;;;5060203;28;20192;-33
2022/04/27 06:37:55;;;;;;;4.70;4.20;;;13.50;42.70;;;;;;5077438;28;20665;-33
2022/04/27 06:40:21;;;;;;;8.00;4.77;;;13.60;42.70;;;;;;5078517;28;20660;-33
2022/04/27 06:42:46;;;;;;;12.63;8.00;;;13.70;42.70;;;;;;5077878;28;20503;-33
2022/04/27 06:45:12;;;;;;;8.43;5.37;;;13.70;42.90;;;;;;5078353;28;20182;-32
2022/04/27 06:47:38;;;;;;;6.40;4.40;;;13.80;42.50;;;;;;5073634;28;20315;-33
2022/04/27 06:50:06;;;;;;;10.07;5.20;;;13.90;42.30;;;;;;5057795;28;20538;-33
2022/04/27 06:52:38;;;;;;;5.93;3.47;;;14.00;42.30;;;;;;5057627;28;20185;-33
2022/04/27 06:55:04;;;;;;;7.68;4.55;;;14.00;42.10;;;;;;5054953;28;20220;-33
2022/04/27 06:57:30;;;;;;;6.43;4.60;;;14.10;42.00;;;;;;5054882;28;20189;-32
2022/04/27 06:59:55;;;;;;;8.57;5.20;;;14.20;42.00;;;;;;5054592;28;20761;-33
2022/04/27 07:02:21;;;;;;;5.87;4.17;;;14.30;42.00;;;;;;5054316;28;20631;-32
2022/04/27 07:04:52;;;;;;;8.80;4.53;;;14.30;41.90;;;;;;5037212;28;20302;-33
2022/04/27 07:07:17;;;;;;;22.15;11.65;;;14.40;41.80;;;;;;5053994;28;20432;-33
2022/04/27 07:09:43;;;;;;;14.93;8.43;;;14.40;41.50;;;;;;5054333;28;20169;-33
2022/04/27 07:12:09;;;;;;;9.03;6.60;;;14.50;41.70;;;;;;5054191;28;20180;-33
2022/04/27 07:14:35;;;;;;;11.33;6.40;;;14.50;41.80;;;;;;5054173;28;20846;-33
2022/04/27 07:17:01;;;;;;;9.83;4.53;;;14.50;41.30;;;;;;5036615;28;20475;-33
2022/04/27 07:19:27;;;;;;;8.38;4.13;;;14.50;41.00;;;;;;5054453;28;20441;-33
2022/04/27 07:21:53;;;;;;;8.20;4.80;;;14.50;41.00;;;;;;5053711;28;20838;-33
2022/04/27 07:24:20;;;;;;;6.57;3.70;;;14.50;41.20;;;;;;5054863;28;20181;-33
2022/04/27 07:26:46;;;;;;;6.97;4.50;;;14.60;41.10;;;;;;5054002;28;20211;-33
2022/04/27 07:29:12;;;;;;;8.53;4.67;;;14.70;41.30;;;;;;5054143;28;20174;-32
2022/04/27 07:31:37;;;;;;;8.30;4.93;;;14.80;41.30;;;;;;5053844;28;20177;-33
2022/04/27 07:34:03;;;;;;;6.67;4.47;;;14.90;41.20;;;;;;5054034;28;20201;-33
2022/04/27 07:36:29;;;;;;;9.40;6.17;;;15.00;41.30;;;;;;5053700;28;20599;-32
2022/04/27 07:38:54;;;;;;;8.27;5.30;;;15.10;41.20;;;;;;5053941;28;20165;-33
2022/04/27 07:41:20;;;;;;;8.70;5.67;;;15.20;41.00;;;;;;5054935;28;20169;-33
2022/04/27 07:43:46;;;;;;;10.90;5.00;;;15.20;40.70;;;;;;5055624;28;20204;-33
2022/04/27 07:46:11;;;;;;;7.20;4.13;;;15.40;41.00;;;;;;5055522;28;20193;-33
2022/04/27 07:48:37;;;;;;;7.23;5.40;;;15.40;40.80;;;;;;5054090;28;20696;-33
2022/04/27 07:51:05;;;;;;;7.33;4.50;;;15.50;40.40;;;;;;5053088;28;20207;-33
2022/04/27 07:53:31;;;;;;;12.30;4.90;;;15.40;40.10;;;;;;5053714;28;20193;-32
2022/04/27 07:55:56;;;;;;;5.73;4.27;;;15.50;40.20;;;;;;5053662;28;20165;-33
2022/04/27 07:58:22;;;;;;;15.23;10.10;;;15.50;40.40;;;;;;5053898;28;20180;-33
2022/04/27 08:00:48;;;;;;;22.77;14.27;;;15.50;40.50;;;;;;5053335;28;20174;-33
2022/04/27 08:03:14;;;;;;;10.60;6.53;;;15.60;40.60;;;;;;5053739;28;20193;-33
2022/04/27 08:05:39;;;;;;;7.70;5.27;;;15.70;40.70;;;;;;5052828;28;20251;-32
2022/04/27 08:08:06;;;;;;;7.33;4.57;;;15.80;40.30;;;;;;5053373;28;20630;-33
2022/04/27 08:10:32;;;;;;;10.57;6.72;;;15.90;40.60;;;;;;5053133;28;20685;-33
2022/04/27 08:12:58;;;;;;;7.63;5.00;;;16.00;40.10;;;;;;5053242;28;20185;-33
2022/04/27 08:15:25;;;;;;;8.33;5.10;;;16.10;39.90;;;;;;5053090;28;20451;-33
2022/04/27 08:17:55;;;;;;;5.43;4.35;;;16.10;40.00;;;;;;5053058;28;20205;-33
2022/04/27 08:23:11;;;;;;;7.10;5.93;;;16.40;40.10;;;;;;5053187;28;20653;-33
2022/04/27 08:25:37;;;;;;;8.50;5.22;;;16.50;40.40;;;;;;5053063;28;20558;-33
2022/04/27 08:28:06;;;;;;;18.80;12.25;;;16.50;39.80;;;;;;5052847;28;20224;-33
2022/04/27 08:30:43;;;;;;;7.70;5.55;;;16.60;39.80;;;;;;5052500;28;20554;-33
2022/04/27 08:33:09;;;;;;;9.50;5.88;;;16.60;39.80;;;;;;5052842;28;20211;-33
2022/04/27 08:35:36;;;;;;;11.30;6.13;;;16.70;39.30;;;;;;5052837;28;20236;-33
2022/04/27 08:38:04;;;;;;;13.50;5.97;;;16.70;39.10;;;;;;5052629;28;20940;-33
2022/04/27 08:40:30;;;;;;;10.27;6.43;;;16.70;39.30;;;;;;5052763;28;20173;-33
2022/04/27 08:42:57;;;;;;;5.93;5.05;;;16.70;39.20;;;;;;5052564;28;20168;-33
2022/04/27 08:45:23;;;;;;;5.70;4.65;;;16.80;39.50;;;;;;5052800;28;20704;-33
2022/04/27 08:47:50;;;;;;;10.50;6.83;;;16.90;39.70;;;;;;5052582;28;20201;-33
2022/04/27 08:50:20;;;;;;;8.63;6.05;;;17.30;39.50;;;;;;5052305;28;20719;-33
2022/04/27 08:52:47;;;;;;;6.95;4.78;;;17.00;39.10;;;;;;5052858;28;20173;-33
2022/04/27 08:55:13;;;;;;;6.18;4.30;;;17.10;39.10;;;;;;5034923;28;20200;-33
2022/04/27 08:57:39;;;;;;;8.75;5.90;;;17.10;39.00;;;;;;5052506;28;20296;-33
2022/04/27 09:00:08;;;;;;;10.77;5.20;;;17.10;38.40;;;;;;5052769;28;20197;-33
2022/04/27 09:02:33;;;;;;;7.97;5.72;;;17.20;38.50;;;;;;5052256;28;20191;-33
2022/04/27 09:05:12;;;;;;;9.77;6.70;;;17.30;38.80;;;;;;5052559;28;20264;-33
2022/04/27 09:07:46;;;;;;;9.75;6.93;;;17.50;39.10;;;;;;5053029;28;20378;-33
2022/04/27 09:10:17;;;;;;;8.05;5.70;;;17.70;39.30;;;;;;5052352;28;20216;-33
2022/04/27 09:12:55;;;;;;;9.45;6.35;;;17.80;38.40;;;;;;5052175;28;20171;-33
2022/04/27 09:15:22;;;;;;;8.68;5.25;;;18.00;38.10;;;;;;5052270;28;20558;-33
2022/04/27 09:20:50;;;;;;;10.45;7.90;;;18.20;38.30;;;;;;5052136;28;20230;-33
2022/04/27 09:23:25;;;;;;;12.50;7.03;;;18.40;37.60;;;;;;5052018;28;20215;-33
2022/04/27 09:25:55;;;;;;;7.22;5.78;;;18.50;37.20;;;;;;5034122;28;20180;-33
2022/04/27 09:28:30;;;;;;;10.18;6.07;;;18.60;37.00;;;;;;5052137;28;20176;-33
2022/04/27 09:30:56;;;;;;;11.70;5.97;;;18.60;36.20;;;;;;5051581;28;20180;-33
2022/04/27 09:33:32;;;;;;;8.68;5.72;;;18.70;37.20;;;;;;5052003;28;20168;-33
2022/04/27 09:35:58;;;;;;;8.35;5.85;;;18.80;37.10;;;;;;5051655;28;20578;-33
2022/04/27 09:38:23;;;;;;;6.60;5.03;;;19.00;36.60;;;;;;5051871;28;20623;-33
2022/04/27 09:40:58;;;;;;;8.80;6.20;;;19.00;36.00;;;;;;5051598;28;20396;-33
2022/04/27 09:43:42;;;;;;;7.70;5.80;;;19.20;35.50;;;;;;5051767;28;20165;-33
2022/04/27 09:46:40;;;;;;;9.00;6.10;;;19.30;36.00;;;;;;5052037;28;20283;-33
2022/04/27 09:49:14;;;;;;;17.77;6.97;;;19.50;36.60;;;;;;5051307;28;20200;-33
2022/04/27 09:51:48;;;;;;;10.85;6.40;;;19.60;35.80;;;;;;5051323;28;20173;-33
2022/04/27 09:54:19;;;;;;;7.00;5.20;;;19.90;35.50;;;;;;5051684;28;20181;-34
2022/04/27 09:56:54;;;;;;;8.45;6.25;;;20.00;36.10;;;;;;5051603;28;20288;-33
2022/04/27 09:59:27;;;;;;;7.22;5.88;;;20.20;34.20;;;;;;5051885;28;20748;-34
2022/04/27 10:02:00;;;;;;;14.05;6.63;;;20.20;35.90;;;;;;5034843;28;20174;-34
2022/04/27 10:04:30;;;;;;;8.18;4.50;;;20.50;35.90;;;;;;5051916;28;20635;-34
2022/04/27 10:07:02;;;;;;;8.27;5.80;;;20.70;33.70;;;;;;5051730;28;20893;-34
2022/04/27 10:09:31;;;;;;;8.15;5.05;;;20.90;35.40;;;;;;5051787;28;20173;-34
2022/04/27 10:12:03;;;;;;;7.93;5.45;;;21.10;34.00;;;;;;5051587;28;20161;-34
2022/04/27 10:14:30;;;;;;;6.15;4.90;;;21.30;34.40;;;;;;5051646;28;20201;-34
2022/04/27 10:16:56;;;;;;;6.15;4.80;;;21.60;34.20;;;;;;5051305;28;20190;-34
2022/04/27 10:19:23;;;;;;;4.53;3.38;;;21.80;32.00;;;;;;5033549;28;20175;-34
2022/04/27 10:21:56;;;;;;;8.55;4.38;;;22.00;31.40;;;;;;5051076;28;20162;-34
2022/04/27 10:24:34;;;;;;;4.45;3.80;;;22.10;31.70;;;;;;5052285;28;20531;-34
2022/04/27 10:27:21;;;;;;;5.32;3.65;;;22.30;30.90;;;;;;5051538;28;20197;-34
2022/04/27 10:30:00;;;;;;;4.43;2.88;;;22.50;32.00;;;;;;5054504;28;20371;-34
2022/04/27 10:32:47;;;;;;;13.57;8.13;;;22.70;32.10;;;;;;5055042;28;20166;-34
2022/04/27 10:35:17;;;;;;;13.43;8.48;;;23.00;32.40;;;;;;5055311;28;20205;-34
2022/04/27 10:37:54;;;;;;;6.70;4.43;;;23.10;29.50;;;;;;5054571;28;20301;-33
2022/04/27 10:40:41;;;;;;;4.43;3.73;;;23.20;27.80;;;;;;5055260;28;20180;-34
2022/04/27 10:43:06;;;;;;;4.37;2.77;;;23.40;29.20;;;;;;5055443;28;20449;-34
2022/04/27 10:45:38;;;;;;;5.77;2.63;;;23.60;29.50;;;;;;5054712;28;20411;-34
2022/04/27 10:48:15;;;;;;;5.90;3.47;;;23.80;28.70;;;;;;5054553;28;20679;-34
2022/04/27 10:50:57;;;;;;;5.23;2.40;;;24.00;29.20;;;;;;5054750;28;20403;-34
2022/04/27 10:53:25;;;;;;;3.60;2.80;;;24.20;28.40;;;;;;5054530;28;20812;-34
2022/04/27 10:55:56;;;;;;;4.60;3.00;;;24.30;27.20;;;;;;5055060;28;20481;-34
2022/04/27 10:58:36;;;;;;;3.53;2.73;;;24.50;28.80;;;;;;5054411;28;20396;-34
2022/04/27 11:01:11;;;;;;;5.73;2.70;;;24.70;27.50;;;;;;5054351;28;20396;-34
2022/04/27 11:03:39;;;;;;;3.20;2.27;;;24.70;25.00;;;;;;5054631;28;20901;-34
2022/04/27 11:06:06;;;;;;;6.00;4.00;;;24.80;26.70;;;;;;5054410;28;20431;-34
2022/04/27 11:08:54;;;;;;;5.40;3.17;;;24.80;24.80;;;;;;5054830;28;20751;-34
2022/04/27 11:11:26;;;;;;;4.80;3.60;;;24.70;25.70;;;;;;5054278;28;20793;-34
2022/04/27 11:14:03;;;;;;;5.70;2.50;;;24.50;25.80;;;;;;5054230;28;20443;-34
2022/04/27 11:16:28;;;;;;;3.97;2.80;;;24.30;24.80;;;;;;5053879;28;20451;-34
2022/04/27 11:18:59;;;;;;;4.30;2.57;;;24.00;26.30;;;;;;5054332;28;20419;-34
2022/04/27 11:21:28;;;;;;;2.53;1.97;;;23.80;26.30;;;;;;5035629;28;20596;-34
2022/04/27 11:23:55;;;;;;;3.57;2.60;;;23.50;25.80;;;;;;5052553;28;20431;-34
2022/04/27 11:26:21;;;;;;;3.73;2.87;;;23.30;26.90;;;;;;5054090;28;20434;-34
2022/04/27 11:28:47;;;;;;;3.30;2.60;;;23.10;26.90;;;;;;5054197;28;20841;-34
2022/04/27 11:31:15;;;;;;;4.25;2.80;;;22.90;26.80;;;;;;5053982;28;20407;-34
2022/04/27 11:33:41;;;;;;;5.97;3.30;;;22.70;26.60;;;;;;5054006;28;20208;-34
2022/04/27 11:36:27;;;;;;;5.17;4.17;;;22.40;27.60;;;;;;5054002;28;20823;-34
2022/04/27 11:38:54;;;;;;;14.85;7.80;;;22.30;27.50;;;;;;5052559;28;20419;-34
2022/04/27 11:41:23;;;;;;;27.90;9.48;;;21.90;26.30;;;;;;5052619;28;20720;-34
2022/04/27 11:43:51;;;;;;;5.93;4.45;;;21.50;27.20;;;;;;5053718;28;20205;-34
2022/04/27 11:46:17;;;;;;;6.55;3.80;;;21.20;26.00;;;;;;5053014;28;20865;-34
2022/04/27 11:48:47;;;;;;;6.25;3.80;;;20.90;27.60;;;;;;5053525;28;20173;-34
2022/04/27 11:51:13;;;;;;;4.55;3.35;;;20.70;27.70;;;;;;5056447;28;20244;-33
2022/04/27 11:53:48;;;;;;;7.00;3.33;;;20.70;28.70;;;;;;5057998;28;20227;-34
2022/04/27 11:56:15;;;;;;;5.72;3.83;;;20.60;28.40;;;;;;5056758;28;20426;-33
2022/04/27 11:58:41;;;;;;;6.72;3.40;;;20.50;28.70;;;;;;5052552;28;20647;-34
2022/04/27 12:01:08;;;;;;;7.75;3.55;;;20.50;28.90;;;;;;5052178;28;20181;-34
2022/04/27 12:03:43;;;;;;;7.72;4.22;;;20.50;29.30;;;;;;5052263;28;20189;-34
2022/04/27 12:06:09;;;;;;;4.35;2.78;;;20.40;29.50;;;;;;5053336;28;20645;-34
2022/04/27 12:08:41;;;;;;;8.13;2.90;;;20.40;29.70;;;;;;5053426;28;20276;-33
2022/04/27 12:11:06;;;;;;;6.45;3.70;;;20.40;30.00;;;;;;5052739;28;20205;-34
2022/04/27 12:13:34;;;;;;;4.40;2.70;;;20.30;30.20;;;;;;5052149;28;20181;-34
2022/04/27 12:16:01;;;;;;;17.65;11.20;;;20.30;30.30;;;;;;5052967;28;20173;-34
2022/04/27 12:18:27;;;;;;;15.88;9.85;;;20.20;30.60;;;;;;5053209;28;20650;-34
2022/04/27 12:20:57;;;;;;;5.93;3.90;;;20.10;30.60;;;;;;5035142;28;20261;-34
2022/04/27 12:23:35;;;;;;;5.30;3.78;;;20.00;30.80;;;;;;5053772;28;20180;-33
2022/04/27 12:26:00;;;;;;;5.68;3.58;;;20.00;30.90;;;;;;5053066;28;20665;-34
2022/04/27 12:28:30;;;;;;;3.30;2.93;;;19.90;31.30;;;;;;5053239;28;20186;-34
2022/04/27 12:31:02;;;;;;;4.07;3.35;;;19.80;31.30;;;;;;5052712;28;20178;-34
2022/04/27 12:33:45;;;;;;;4.85;3.70;;;19.80;31.10;;;;;;5053044;28;20172;-34
2022/04/27 12:39:13;;;;;;;6.10;3.63;;;19.80;31.40;;;;;;5053089;28;20207;-34
2022/04/27 12:41:44;;;;;;;8.40;2.97;;;19.80;31.30;;;;;;5053029;28;20165;-34
2022/04/27 12:44:12;;;;;;;6.28;3.90;;;19.80;31.30;;;;;;5053112;28;20169;-34
2022/04/27 12:46:53;;;;;;;4.80;3.00;;;19.80;31.40;;;;;;5052516;28;20239;-34
2022/04/27 12:49:25;;;;;;;4.40;2.60;;;19.90;31.10;;;;;;5053034;28;20236;-34
2022/04/27 12:51:50;;;;;;;5.63;3.60;;;19.90;31.50;;;;;;5052601;28;20161;-34
2022/04/27 12:54:16;;;;;;;6.23;3.43;;;20.00;31.40;;;;;;5052410;28;20212;-34
2022/04/27 12:56:42;;;;;;;6.90;3.80;;;20.00;31.30;;;;;;5052700;28;20185;-34
2022/04/27 12:59:12;;;;;;;6.13;4.47;;;20.10;31.10;;;;;;5052417;28;20197;-34
2022/04/27 13:01:39;;;;;;;4.60;2.60;;;20.20;30.60;;;;;;5052208;28;20169;-34
2022/04/27 13:04:06;;;;;;;4.28;2.95;;;20.20;30.70;;;;;;5052506;28;20173;-34
2022/04/27 13:06:32;;;;;;;4.35;3.08;;;20.30;30.70;;;;;;5052464;28;20255;-34
2022/04/27 13:11:56;;;;;;;4.63;3.03;;;20.40;30.00;;;;;;5052172;28;20238;-34
2022/04/27 13:14:26;;;;;;;4.20;2.90;;;20.50;30.60;;;;;;5052164;28;20200;-34
2022/04/27 13:16:53;;;;;;;4.57;3.35;;;20.50;31.20;;;;;;5052320;28;20212;-34